Time;durP1;ratioP1;P1;durP2;ratioP2;P2;SDS_P1;SDS_P2;PMS_P1;PMS_P2;Temp;Humidity;BMP_temperature;BMP_pressure;BME280_temperature;BME280_humidity;BME280_pressure;Samples;Min_cycle;Max_cycle;Signal;HPM_P1;HPM_P2
2023/05/28 00:00:06;;;;;;;;;;;16.40;71.10;;;;;;5090563;28;19935;-65
2023/05/28 00:02:32;;;;;;;;;;;16.40;71.00;;;;;;5090398;28;19912;-65
2023/05/28 00:04:57;;;;;;;;;;;16.40;71.20;;;;;;5001526;28;19921;-65
2023/05/28 00:07:24;;;;;;;;;;;16.30;71.10;;;;;;4987892;28;20006;-65
2023/05/28 00:09:49;;;;;;;;;;;16.30;71.20;;;;;;4988022;28;19921;-65
2023/05/28 00:12:15;;;;;;;;;;;16.30;70.90;;;;;;4987880;28;19914;-65
2023/05/28 00:14:40;;;;;;;;;;;16.30;71.10;;;;;;4987970;28;19920;-65
2023/05/28 00:17:06;;;;;;;;;;;16.20;71.20;;;;;;4987763;28;19913;-65
2023/05/28 00:19:32;;;;;;;;;;;16.20;71.30;;;;;;4987601;28;19966;-65
2023/05/28 00:21:57;;;;;;;;;;;16.20;71.50;;;;;;4987419;28;20004;-65
2023/05/28 00:24:23;;;;;;;;;;;16.10;71.60;;;;;;4987863;28;19925;-65
2023/05/28 00:26:49;;;;;;;;;;;16.10;71.60;;;;;;4987466;28;19959;-65
2023/05/28 00:29:14;;;;;;;;;;;16.10;71.50;;;;;;4982808;28;19914;-65
2023/05/28 00:31:40;;;;;;;;;;;16.10;71.60;;;;;;4986767;28;19921;-65
2023/05/28 00:34:05;;;;;;;;;;;16.00;71.60;;;;;;4987374;28;19917;-65
2023/05/28 00:36:31;;;;;;;;;;;16.00;71.50;;;;;;4987335;28;19982;-66
2023/05/28 00:38:56;;;;;;;;;;;16.00;72.00;;;;;;4987538;28;19915;-65
2023/05/28 00:41:22;;;;;;;;;;;16.00;72.00;;;;;;4987388;28;20058;-65
2023/05/28 00:43:51;;;;;;;;;;;15.90;72.20;;;;;;4987152;28;20664;-65
2023/05/28 00:46:17;;;;;;;;;;;15.90;72.20;;;;;;4986347;28;19960;-65
2023/05/28 00:48:44;;;;;;;;;;;15.90;72.10;;;;;;4987466;28;19918;-66
2023/05/28 00:51:10;;;;;;;;;;;15.80;72.50;;;;;;5028210;28;19918;-65
2023/05/28 00:53:35;;;;;;;;;;;15.80;72.60;;;;;;5085693;28;20272;-65
2023/05/28 00:56:02;;;;;;;;;;;15.80;72.20;;;;;;5027617;28;20551;-66
2023/05/28 00:58:28;;;;;;;;;;;15.70;72.40;;;;;;4986415;28;20431;-65
2023/05/28 01:00:53;;;;;;;;;;;15.70;72.30;;;;;;4987120;28;20313;-65
2023/05/28 01:03:20;;;;;;;;;;;15.70;72.40;;;;;;4987239;28;19910;-65
2023/05/28 01:05:45;;;;;;;;;;;15.70;72.60;;;;;;4986842;28;19933;-65
2023/05/28 01:08:11;;;;;;;;;;;15.70;72.80;;;;;;4987190;28;20248;-65
2023/05/28 01:10:37;;;;;;;;;;;15.60;72.80;;;;;;4987156;28;19961;-65
2023/05/28 01:13:04;;;;;;;;;;;15.60;72.90;;;;;;4986996;28;20396;-65
2023/05/28 01:15:29;;;;;;;;;;;15.60;73.30;;;;;;4987010;28;20385;-65
2023/05/28 01:17:57;;;;;;;;;;;15.60;73.30;;;;;;4987163;28;19914;-65
2023/05/28 01:20:24;;;;;;;;;;;15.50;72.60;;;;;;4987012;28;20012;-65
2023/05/28 01:22:55;;;;;;;;;;;15.50;72.90;;;;;;4986564;28;19926;-65
2023/05/28 01:25:21;;;;;;;;;;;15.50;73.10;;;;;;4986957;28;20392;-65
2023/05/28 01:27:47;;;;;;;;;;;15.50;73.00;;;;;;4986980;28;20405;-65
2023/05/28 01:30:12;;;;;;;;;;;15.50;73.30;;;;;;4981552;28;19914;-65
2023/05/28 01:32:38;;;;;;;;;;;15.40;73.50;;;;;;4986080;28;20325;-65
2023/05/28 01:35:05;;;;;;;;;;;15.40;73.10;;;;;;4968975;28;19964;-65
2023/05/28 01:37:33;;;;;;;;;;;15.40;73.50;;;;;;4967493;28;19914;-65
2023/05/28 01:39:59;;;;;;;;;;;15.30;73.50;;;;;;4967418;28;20435;-65
2023/05/28 01:42:25;;;;;;;;;;;15.30;73.60;;;;;;4967179;28;19945;-65
2023/05/28 01:44:51;;;;;;;;;;;15.30;73.90;;;;;;4977887;28;19948;-65
2023/05/28 01:47:17;;;;;;;;;;;15.30;73.60;;;;;;4985097;28;20382;-65
2023/05/28 01:49:42;;;;;;;;;;;15.20;73.70;;;;;;4986487;28;19944;-65
2023/05/28 01:52:08;;;;;;;;;;;15.20;73.40;;;;;;4986027;28;19914;-65
2023/05/28 01:54:34;;;;;;;;;;;15.20;74.60;;;;;;4986116;28;19921;-65
2023/05/28 01:57:00;;;;;;;;;;;15.20;73.80;;;;;;4984907;28;20406;-65
2023/05/28 01:59:26;;;;;;;;;;;15.20;74.00;;;;;;4985839;28;20319;-65
2023/05/28 02:01:51;;;;;;;;;;;15.10;73.40;;;;;;4984937;28;19918;-65
2023/05/28 02:04:17;;;;;;;;;;;15.10;73.90;;;;;;4978647;28;19913;-65
2023/05/28 02:06:45;;;;;;;;;;;15.10;74.80;;;;;;5038657;28;19924;-65
2023/05/28 02:09:11;;;;;;;;;;;15.10;74.40;;;;;;5088626;28;19909;-65
2023/05/28 02:11:36;;;;;;;;;;;15.10;74.80;;;;;;5088570;28;19912;-65
2023/05/28 02:14:03;;;;;;;;;;;15.00;74.80;;;;;;5088763;28;19950;-65
2023/05/28 02:16:29;;;;;;;;;;;15.00;74.80;;;;;;5081906;28;19912;-65
2023/05/28 02:18:55;;;;;;;;;;;15.00;74.90;;;;;;4986473;28;19921;-65
2023/05/28 02:21:20;;;;;;;;;;;15.00;75.10;;;;;;4986055;28;19918;-65
2023/05/28 02:23:47;;;;;;;;;;;14.90;74.20;;;;;;4985921;28;19947;-65
2023/05/28 02:26:12;;;;;;;;;;;14.90;74.20;;;;;;4985918;28;19917;-65
2023/05/28 02:28:38;;;;;;;;;;;14.90;74.70;;;;;;4986172;28;20382;-65
2023/05/28 02:31:03;;;;;;;;;;;14.90;74.80;;;;;;4985105;28;19921;-65
2023/05/28 02:33:29;;;;;;;;;;;14.80;74.60;;;;;;4985891;28;19983;-65
2023/05/28 02:35:54;;;;;;;;;;;14.80;74.60;;;;;;4985983;28;19918;-65
2023/05/28 02:38:20;;;;;;;;;;;14.80;75.40;;;;;;4986120;28;19913;-65
2023/05/28 02:40:46;;;;;;;;;;;14.80;75.30;;;;;;4985759;28;19953;-65
2023/05/28 02:43:11;;;;;;;;;;;14.80;75.50;;;;;;4985670;28;19914;-65
2023/05/28 02:45:37;;;;;;;;;;;14.70;75.10;;;;;;4985766;28;20263;-65
2023/05/28 02:48:02;;;;;;;;;;;14.70;75.10;;;;;;4985869;28;20645;-65
2023/05/28 02:50:28;;;;;;;;;;;14.70;75.30;;;;;;4985608;28;20317;-65
2023/05/28 02:52:54;;;;;;;;;;;14.70;75.10;;;;;;4984400;28;19925;-65
2023/05/28 02:55:20;;;;;;;;;;;14.70;75.40;;;;;;4985696;28;19914;-65
2023/05/28 02:57:46;;;;;;;;;;;14.60;75.70;;;;;;4985966;28;19921;-65
2023/05/28 03:00:12;;;;;;;;;;;14.60;75.90;;;;;;4984098;28;19917;-65
2023/05/28 03:02:37;;;;;;;;;;;14.60;76.00;;;;;;4985497;28;19910;-65
2023/05/28 03:05:03;;;;;;;;;;;14.60;76.10;;;;;;4979692;28;19921;-65
2023/05/28 03:07:29;;;;;;;;;;;14.50;75.90;;;;;;4982457;28;19918;-65
2023/05/28 03:09:56;;;;;;;;;;;14.50;76.30;;;;;;4986785;28;19966;-65
2023/05/28 03:12:21;;;;;;;;;;;14.50;75.80;;;;;;4988707;28;19949;-65
2023/05/28 03:14:47;;;;;;;;;;;14.50;75.70;;;;;;5000123;28;19983;-65
2023/05/28 03:17:12;;;;;;;;;;;14.50;76.20;;;;;;5000979;28;20374;-65
2023/05/28 03:19:38;;;;;;;;;;;14.40;76.30;;;;;;4988721;28;19914;-65
2023/05/28 03:22:03;;;;;;;;;;;14.40;76.30;;;;;;4988475;28;19914;-65
2023/05/28 03:24:30;;;;;;;;;;;14.40;76.30;;;;;;4989011;28;20276;-65
2023/05/28 03:26:57;;;;;;;;;;;14.40;76.80;;;;;;4988582;28;19924;-65
2023/05/28 03:29:22;;;;;;;;;;;14.40;76.80;;;;;;4983331;28;20366;-65
2023/05/28 03:31:48;;;;;;;;;;;14.40;76.80;;;;;;4987883;28;20009;-65
2023/05/28 03:34:13;;;;;;;;;;;14.30;77.10;;;;;;4988497;28;20005;-67
2023/05/28 03:36:42;;;;;;;;;;;14.30;76.80;;;;;;4988493;28;20020;-67
2023/05/28 03:39:08;;;;;;;;;;;14.30;76.80;;;;;;4988471;28;19914;-67
2023/05/28 03:41:34;;;;;;;;;;;14.30;76.80;;;;;;4988410;28;20020;-67
2023/05/28 03:43:59;;;;;;;;;;;14.20;76.90;;;;;;4988091;28;19996;-67
2023/05/28 03:46:25;;;;;;;;;;;14.20;76.90;;;;;;4986733;28;20598;-67
2023/05/28 03:48:50;;;;;;;;;;;14.20;77.10;;;;;;4988412;28;20374;-67
2023/05/28 03:51:16;;;;;;;;;;;14.20;77.00;;;;;;4988188;28;19910;-67
2023/05/28 03:53:42;;;;;;;;;;;14.20;76.70;;;;;;4987970;28;20008;-67
2023/05/28 03:56:07;;;;;;;;;;;14.20;77.20;;;;;;4987025;28;19920;-67
2023/05/28 03:58:32;;;;;;;;;;;14.20;77.10;;;;;;4988286;28;19919;-67
2023/05/28 04:00:59;;;;;;;;;;;14.10;77.20;;;;;;4988142;28;20396;-67
2023/05/28 04:03:25;;;;;;;;;;;14.10;77.00;;;;;;4987746;28;19913;-67
2023/05/28 04:05:51;;;;;;;;;;;14.10;77.20;;;;;;4988049;28;20703;-67
2023/05/28 04:08:17;;;;;;;;;;;14.10;76.50;;;;;;4994895;28;19920;-67
2023/05/28 04:10:42;;;;;;;;;;;14.10;76.80;;;;;;5090437;28;19920;-67
2023/05/28 04:13:08;;;;;;;;;;;14.00;76.30;;;;;;5090336;28;19912;-67
2023/05/28 04:15:33;;;;;;;;;;;14.00;76.50;;;;;;5090243;28;19908;-67
2023/05/28 04:17:59;;;;;;;;;;;14.00;76.80;;;;;;5020463;28;20290;-67
2023/05/28 04:20:24;;;;;;;;;;;14.00;77.40;;;;;;4985463;28;19914;-67
2023/05/28 04:22:50;;;;;;;;;;;14.00;76.80;;;;;;5017287;28;20006;-67
2023/05/28 04:25:18;;;;;;;;;;;14.00;77.30;;;;;;5090556;28;19911;-67
2023/05/28 04:27:44;;;;;;;;;;;14.00;77.50;;;;;;5090044;28;19961;-67
2023/05/28 04:30:11;;;;;;;;;;;14.00;77.20;;;;;;5022009;28;20390;-67
2023/05/28 04:32:38;;;;;;;;;;;14.00;77.20;;;;;;4987065;28;19914;-67
2023/05/28 04:35:10;;;;;;;;;;;14.00;77.00;;;;;;4986325;28;19914;-67
2023/05/28 04:37:39;;;;;;;;;;;14.00;76.60;;;;;;4987429;28;19917;-67
2023/05/28 04:40:05;;;;;;;;;;;13.90;77.40;;;;;;4987643;28;19914;-67
2023/05/28 04:42:31;;;;;;;;;;;13.90;77.10;;;;;;4986020;28;20420;-67
2023/05/28 04:44:58;;;;;;;;;;;13.90;76.60;;;;;;4987474;28;19992;-67
2023/05/28 04:47:23;;;;;;;;;;;13.90;76.70;;;;;;4984483;28;19922;-67
2023/05/28 04:49:49;;;;;;;;;;;13.90;77.30;;;;;;4981781;28;19975;-67
2023/05/28 04:52:16;;;;;;;;;;;13.90;76.70;;;;;;5037768;28;19945;-67
2023/05/28 04:54:41;;;;;;;;;;;13.90;76.80;;;;;;4986942;28;19910;-67
2023/05/28 04:57:07;;;;;;;;;;;13.90;77.20;;;;;;4986370;28;19910;-67
2023/05/28 04:59:34;;;;;;;;;;;13.90;76.80;;;;;;4986913;28;19917;-67
2023/05/28 05:01:59;;;;;;;;;;;13.90;76.80;;;;;;4985269;28;19909;-67
2023/05/28 05:04:25;;;;;;;;;;;13.90;77.10;;;;;;4986037;28;19925;-67
2023/05/28 05:06:50;;;;;;;;;;;13.90;76.90;;;;;;4986834;28;20289;-67
2023/05/28 05:09:16;;;;;;;;;;;13.90;76.90;;;;;;4975218;28;19914;-67
2023/05/28 05:11:41;;;;;;;;;;;13.90;76.90;;;;;;4967655;28;19942;-67
2023/05/28 05:14:07;;;;;;;;;;;13.90;77.00;;;;;;4967332;28;20001;-67
2023/05/28 05:16:32;;;;;;;;;;;13.90;77.80;;;;;;4969135;28;20631;-67
2023/05/28 05:18:58;;;;;;;;;;;13.90;77.00;;;;;;4986981;28;19960;-67
2023/05/28 05:21:24;;;;;;;;;;;13.90;77.00;;;;;;4985371;28;19914;-67
2023/05/28 05:23:50;;;;;;;;;;;13.80;77.00;;;;;;4986431;28;20420;-67
2023/05/28 05:26:18;;;;;;;;;;;13.90;77.20;;;;;;4986731;28;19921;-67
2023/05/28 05:28:44;;;;;;;;;;;13.90;77.00;;;;;;4986455;28;20422;-67
2023/05/28 05:31:13;;;;;;;;;;;13.90;77.00;;;;;;4985796;28;20016;-67
2023/05/28 05:33:40;;;;;;;;;;;13.90;77.10;;;;;;4984970;28;19914;-67
2023/05/28 05:36:06;;;;;;;;;;;13.90;77.10;;;;;;4986477;28;20424;-67
2023/05/28 05:38:31;;;;;;;;;;;13.90;77.00;;;;;;4985241;28;19935;-67
2023/05/28 05:40:57;;;;;;;;;;;13.90;77.10;;;;;;4986557;28;20581;-67
2023/05/28 05:43:22;;;;;;;;;;;13.90;77.10;;;;;;4983289;28;20020;-67
2023/05/28 05:45:48;;;;;;;;;;;13.90;77.10;;;;;;4986343;28;19917;-67
2023/05/28 05:48:13;;;;;;;;;;;13.90;77.20;;;;;;4984750;28;20407;-67
2023/05/28 05:50:49;;;;;;;;;;;13.90;77.10;;;;;;4986354;28;20351;-67
2023/05/28 05:53:14;;;;;;;;;;;13.90;77.00;;;;;;4986068;28;19955;-67
2023/05/28 05:55:40;;;;;;;;;;;13.90;77.20;;;;;;4999705;28;19912;-67
2023/05/28 05:58:05;;;;;;;;;;;13.90;77.20;;;;;;5044643;28;19927;-67
2023/05/28 06:00:31;;;;;;;;;;;13.90;77.10;;;;;;5088566;28;20372;-67
2023/05/28 06:02:56;;;;;;;;;;;14.00;77.20;;;;;;5088248;28;19913;-67
2023/05/28 06:05:22;;;;;;;;;;;13.90;77.10;;;;;;5014468;28;19996;-68
2023/05/28 06:07:47;;;;;;;;;;;14.00;77.30;;;;;;4984631;28;19922;-67
2023/05/28 06:10:13;;;;;;;;;;;14.00;77.40;;;;;;4986120;28;19918;-67
2023/05/28 06:12:38;;;;;;;;;;;14.00;77.30;;;;;;4985850;28;20005;-67
2023/05/28 06:15:05;;;;;;;;;;;14.00;77.10;;;;;;5025486;28;19908;-67
2023/05/28 06:17:31;;;;;;;;;;;14.00;77.20;;;;;;5058406;28;19912;-67
2023/05/28 06:19:58;;;;;;;;;;;14.00;77.20;;;;;;5086471;28;19923;-67
2023/05/28 06:22:24;;;;;;;;;;;14.00;77.10;;;;;;5087994;28;19920;-67
2023/05/28 06:24:52;;;;;;;;;;;14.00;77.20;;;;;;5088610;28;19963;-67
2023/05/28 06:27:17;;;;;;;;;;;14.00;77.20;;;;;;5088331;28;19923;-67
2023/05/28 06:29:43;;;;;;;;;;;14.10;77.30;;;;;;5058403;28;19916;-67
2023/05/28 06:32:08;;;;;;;;;;;14.10;77.10;;;;;;5045441;28;19912;-67
2023/05/28 06:34:34;;;;;;;;;;;14.10;77.10;;;;;;5088323;28;19912;-67
2023/05/28 06:37:00;;;;;;;;;;;14.10;77.00;;;;;;5068293;28;20424;-67
2023/05/28 06:39:26;;;;;;;;;;;14.10;77.10;;;;;;4985883;28;19914;-67
2023/05/28 06:41:51;;;;;;;;;;;14.10;77.00;;;;;;4985642;28;19909;-67
2023/05/28 06:44:17;;;;;;;;;;;14.20;77.10;;;;;;4987866;28;19910;-67
2023/05/28 06:46:42;;;;;;;;;;;14.20;77.00;;;;;;4988982;28;19913;-67
2023/05/28 06:49:08;;;;;;;;;;;14.20;77.10;;;;;;4989397;28;19921;-67
2023/05/28 06:51:33;;;;;;;;;;;14.20;77.00;;;;;;4989104;28;19967;-67
2023/05/28 06:53:59;;;;;;;;;;;14.20;77.00;;;;;;4989345;28;20496;-67
2023/05/28 06:56:24;;;;;;;;;;;14.20;77.00;;;;;;4989298;28;19921;-67
2023/05/28 06:58:50;;;;;;;;;;;14.30;77.00;;;;;;5028181;28;19914;-67
2023/05/28 07:01:16;;;;;;;;;;;14.30;76.90;;;;;;5074079;28;19912;-67
2023/05/28 07:03:42;;;;;;;;;;;14.30;76.90;;;;;;5088476;28;19954;-67
2023/05/28 07:06:07;;;;;;;;;;;14.30;76.90;;;;;;4989061;28;19978;-67
2023/05/28 07:08:33;;;;;;;;;;;14.30;76.80;;;;;;4989160;28;19968;-67
2023/05/28 07:10:58;;;;;;;;;;;14.30;76.80;;;;;;4989325;28;19914;-67
2023/05/28 07:13:24;;;;;;;;;;;14.30;76.80;;;;;;4988827;28;20523;-67
2023/05/28 07:15:50;;;;;;;;;;;14.40;76.80;;;;;;4988744;28;19913;-67
2023/05/28 07:18:16;;;;;;;;;;;14.40;76.80;;;;;;4988794;28;20422;-67
2023/05/28 07:20:41;;;;;;;;;;;14.40;76.60;;;;;;4988530;28;20282;-68
2023/05/28 07:23:07;;;;;;;;;;;14.40;76.70;;;;;;4988336;28;19965;-67
2023/05/28 07:25:32;;;;;;;;;;;14.50;76.70;;;;;;4987587;28;19924;-68
2023/05/28 07:27:58;;;;;;;;;;;14.50;76.50;;;;;;4988744;28;19965;-67
2023/05/28 07:30:23;;;;;;;;;;;14.50;76.50;;;;;;5028991;28;19912;-67
2023/05/28 07:32:49;;;;;;;;;;;14.50;76.30;;;;;;5053807;28;19957;-67
2023/05/28 07:35:14;;;;;;;;;;;14.50;77.00;;;;;;5091146;28;19908;-67
2023/05/28 07:37:40;;;;;;;;;;;14.50;76.30;;;;;;5044028;28;19917;-67
2023/05/28 07:40:06;;;;;;;;;;;14.60;76.20;;;;;;4988227;28;19914;-67
2023/05/28 07:42:31;;;;;;;;;;;14.60;76.20;;;;;;4988161;28;20440;-67
2023/05/28 07:44:57;;;;;;;;;;;14.60;76.20;;;;;;4988574;28;19959;-67
2023/05/28 07:47:22;;;;;;;;;;;14.60;76.10;;;;;;4988061;28;19999;-67
2023/05/28 07:49:48;;;;;;;;;;;14.60;76.00;;;;;;4988352;28;19929;-67
2023/05/28 07:52:13;;;;;;;;;;;14.70;76.10;;;;;;5019814;28;20616;-67
2023/05/28 07:54:39;;;;;;;;;;;14.70;75.90;;;;;;5089477;28;19921;-67
2023/05/28 07:57:05;;;;;;;;;;;14.70;75.90;;;;;;5090900;28;20006;-67
2023/05/28 07:59:31;;;;;;;;;;;14.70;75.80;;;;;;5045921;28;20279;-67
2023/05/28 08:01:57;;;;;;;;;;;14.80;75.70;;;;;;5047887;28;19919;-67
2023/05/28 08:04:22;;;;;;;;;;;14.80;75.80;;;;;;5058978;28;20333;-67
2023/05/28 08:06:48;;;;;;;;;;;14.80;75.70;;;;;;4987951;28;19917;-67
2023/05/28 08:09:17;;;;;;;;;;;14.80;75.60;;;;;;4988237;28;19959;-67
2023/05/28 08:11:43;;;;;;;;;;;14.90;75.60;;;;;;4987818;28;19917;-67
2023/05/28 08:14:08;;;;;;;;;;;14.90;76.30;;;;;;4986667;28;20017;-67
2023/05/28 08:16:34;;;;;;;;;;;15.00;75.70;;;;;;4987714;28;20008;-67
2023/05/28 08:19:00;;;;;;;;;;;15.00;75.50;;;;;;4987983;28;20000;-68
2023/05/28 08:21:26;;;;;;;;;;;15.00;75.50;;;;;;4987842;28;19997;-67
2023/05/28 08:23:54;;;;;;;;;;;15.00;75.20;;;;;;4987867;28;19922;-67
2023/05/28 08:26:20;;;;;;;;;;;15.10;75.50;;;;;;5081200;28;19912;-67
2023/05/28 08:28:46;;;;;;;;;;;15.10;75.10;;;;;;5086249;28;20473;-67
2023/05/28 08:31:11;;;;;;;;;;;15.10;75.00;;;;;;5025973;28;19914;-67
2023/05/28 08:33:37;;;;;;;;;;;15.20;74.90;;;;;;5086787;28;19961;-66
2023/05/28 08:36:02;;;;;;;;;;;15.20;74.90;;;;;;5090291;28;19916;-66
2023/05/28 08:38:29;;;;;;;;;;;15.20;74.80;;;;;;5009539;28;19920;-66
2023/05/28 08:40:55;;;;;;;;;;;15.30;74.80;;;;;;4987867;28;19971;-66
2023/05/28 08:43:20;;;;;;;;;;;15.30;74.80;;;;;;4987435;28;19914;-66
2023/05/28 08:45:46;;;;;;;;;;;15.30;75.00;;;;;;4986070;28;20274;-66
2023/05/28 08:48:12;;;;;;;;;;;15.40;74.80;;;;;;4987389;28;20312;-66
2023/05/28 08:50:40;;;;;;;;;;;15.40;74.50;;;;;;4987330;28;20309;-66
2023/05/28 08:53:07;;;;;;;;;;;15.50;74.40;;;;;;4987300;28;19914;-66
2023/05/28 08:55:33;;;;;;;;;;;15.50;74.30;;;;;;4987683;28;20008;-66
2023/05/28 08:57:59;;;;;;;;;;;15.60;74.50;;;;;;4987442;28;19913;-66
2023/05/28 09:00:25;;;;;;;;;;;15.60;74.30;;;;;;4990267;28;19914;-66
2023/05/28 09:02:50;;;;;;;;;;;15.70;74.30;;;;;;5046380;28;20392;-66
2023/05/28 09:05:16;;;;;;;;;;;15.70;74.30;;;;;;5019578;28;19921;-66
2023/05/28 09:07:41;;;;;;;;;;;15.70;74.10;;;;;;4986540;28;19914;-66
2023/05/28 09:10:10;;;;;;;;;;;15.80;74.20;;;;;;4987635;28;20297;-66
2023/05/28 09:12:37;;;;;;;;;;;15.80;74.10;;;;;;4989199;28;20349;-66
2023/05/28 09:15:03;;;;;;;;;;;15.90;74.00;;;;;;4996338;28;19914;-66
2023/05/28 09:17:31;;;;;;;;;;;15.90;74.20;;;;;;4995849;28;20259;-67
2023/05/28 09:19:59;;;;;;;;;;;16.00;74.20;;;;;;4986918;28;19921;-69
2023/05/28 09:22:26;;;;;;;;;;;16.20;75.50;;;;;;4986736;28;20294;-69
2023/05/28 09:24:53;;;;;;;;;;;16.40;75.60;;;;;;4987210;28;19913;-69
2023/05/28 09:27:19;;;;;;;;;;;16.50;75.50;;;;;;4986964;28;19918;-69
2023/05/28 09:29:46;;;;;;;;;;;16.60;75.40;;;;;;5005323;28;19966;-69
2023/05/28 09:32:16;;;;;;;;;;;16.70;75.30;;;;;;5045777;28;19995;-70
2023/05/28 09:34:45;;;;;;;;;;;16.80;75.80;;;;;;5086801;28;19934;-70
2023/05/28 09:37:11;;;;;;;;;;;16.90;75.60;;;;;;5033364;28;20317;-70
2023/05/28 09:39:36;;;;;;;;;;;16.90;75.10;;;;;;4985984;28;19935;-70
2023/05/28 09:42:11;;;;;;;;;;;17.00;75.10;;;;;;4985675;28;19914;-70
2023/05/28 09:44:38;;;;;;;;;;;17.10;74.90;;;;;;4985946;28;20408;-70
2023/05/28 09:47:14;;;;;;;;;;;17.20;74.70;;;;;;4985597;28;20677;-70
2023/05/28 09:49:41;;;;;;;;;;;17.20;74.70;;;;;;4984479;28;20005;-70
2023/05/28 09:52:08;;;;;;;;;;;17.30;75.50;;;;;;4985442;28;19914;-70
2023/05/28 09:54:35;;;;;;;;;;;17.40;74.60;;;;;;4985238;28;20004;-70
2023/05/28 09:57:02;;;;;;;;;;;17.50;74.20;;;;;;4985833;28;20331;-70
2023/05/28 09:59:30;;;;;;;;;;;17.60;73.90;;;;;;4985759;28;19910;-70
2023/05/28 10:01:59;;;;;;;;;;;17.60;74.00;;;;;;5027321;28;19914;-69
2023/05/28 10:04:31;;;;;;;;;;;17.60;74.80;;;;;;5043186;28;19967;-70
2023/05/28 10:06:57;;;;;;;;;;;17.70;74.40;;;;;;4985379;28;19917;-71
2023/05/28 10:09:23;;;;;;;;;;;17.80;75.20;;;;;;4985492;28;19921;-70
2023/05/28 10:12:15;;;;;;;;;;;17.90;75.00;;;;;;4985224;28;20304;-70
2023/05/28 10:14:41;;;;;;;;;;;18.00;74.50;;;;;;4983392;28;20354;-70
2023/05/28 10:17:10;;;;;;;;;;;18.10;74.60;;;;;;4985300;28;19913;-70
2023/05/28 10:19:36;;;;;;;;;;;18.20;74.10;;;;;;4988355;28;19913;-70
2023/05/28 10:22:02;;;;;;;;;;;18.30;73.80;;;;;;4988502;28;19909;-70
2023/05/28 10:24:28;;;;;;;;;;;18.40;73.80;;;;;;4989038;28;19964;-70
2023/05/28 10:26:54;;;;;;;;;;;18.40;73.50;;;;;;5040152;28;19916;-70
2023/05/28 10:29:20;;;;;;;;;;;18.50;73.70;;;;;;5066854;28;20342;-70
2023/05/28 10:31:56;;;;;;;;;;;18.60;74.10;;;;;;5048236;28;19912;-70
2023/05/28 10:34:28;;;;;;;;;;;18.70;73.30;;;;;;5091910;28;19920;-70
2023/05/28 10:36:54;;;;;;;;;;;18.80;73.60;;;;;;5077335;28;19918;-70
2023/05/28 10:39:20;;;;;;;;;;;18.90;73.10;;;;;;4988756;28;20466;-70
2023/05/28 10:41:45;;;;;;;;;;;18.90;73.10;;;;;;4988511;28;20043;-70
2023/05/28 10:44:11;;;;;;;;;;;19.10;73.20;;;;;;4988517;28;19919;-70
2023/05/28 10:46:37;;;;;;;;;;;19.20;73.30;;;;;;4988566;28;19914;-70
2023/05/28 10:49:08;;;;;;;;;;;19.40;73.30;;;;;;4989452;28;20353;-71
2023/05/28 10:51:52;;;;;;;;;;;19.50;73.00;;;;;;4986790;28;19917;-70
2023/05/28 10:54:23;;;;;;;;;;;19.60;73.00;;;;;;5043415;28;20468;-70
2023/05/28 10:57:07;;;;;;;;;;;19.70;72.90;;;;;;4988124;28;19910;-70
2023/05/28 10:59:38;;;;;;;;;;;19.90;73.40;;;;;;4988559;28;19936;-70
2023/05/28 11:02:05;;;;;;;;;;;19.90;72.90;;;;;;4987984;28;20000;-71
2023/05/28 11:04:34;;;;;;;;;;;20.00;73.00;;;;;;4988984;28;19917;-70
2023/05/28 11:06:59;;;;;;;;;;;20.10;73.00;;;;;;4988387;28;19924;-70
2023/05/28 11:09:25;;;;;;;;;;;20.30;72.30;;;;;;4980327;28;20353;-70
2023/05/28 11:11:51;;;;;;;;;;;20.40;72.10;;;;;;5016029;28;20463;-69
2023/05/28 11:14:16;;;;;;;;;;;20.40;71.40;;;;;;5091075;28;19916;-71
2023/05/28 11:16:41;;;;;;;;;;;20.50;71.50;;;;;;5075341;28;20043;-71
2023/05/28 11:19:08;;;;;;;;;;;20.50;71.80;;;;;;5010968;28;19910;-71
2023/05/28 11:21:36;;;;;;;;;;;20.50;71.50;;;;;;5090792;28;20373;-69
2023/05/28 11:24:03;;;;;;;;;;;20.50;71.10;;;;;;5091114;28;19920;-69
2023/05/28 11:26:28;;;;;;;;;;;20.60;70.90;;;;;;5091282;28;19912;-69
2023/05/28 11:28:54;;;;;;;;;;;20.80;71.00;;;;;;5080177;28;20505;-68
2023/05/28 11:31:20;;;;;;;;;;;20.80;69.90;;;;;;4966982;28;20563;-74
2023/05/28 11:33:49;;;;;;;;;;;21.00;70.30;;;;;;4969012;28;19921;-71
2023/05/28 11:36:14;;;;;;;;;;;21.10;70.20;;;;;;4968804;28;19914;-74
2023/05/28 11:38:40;;;;;;;;;;;21.20;69.10;;;;;;4985872;28;20509;-71
2023/05/28 11:41:06;;;;;;;;;;;21.30;70.10;;;;;;4988021;28;20004;-73
2023/05/28 11:43:31;;;;;;;;;;;21.40;71.50;;;;;;4988128;28;19913;-71
2023/05/28 11:45:57;;;;;;;;;;;21.50;72.10;;;;;;4987668;28;19914;-72
2023/05/28 11:48:24;;;;;;;;;;;21.60;70.60;;;;;;4987795;28;19933;-72
2023/05/28 11:50:55;;;;;;;;;;;21.70;70.40;;;;;;4988333;28;19953;-71
2023/05/28 11:53:21;;;;;;;;;;;21.80;70.70;;;;;;4988194;28;19915;-72
2023/05/28 11:55:46;;;;;;;;;;;21.80;70.80;;;;;;4988423;28;19918;-71
2023/05/28 11:58:12;;;;;;;;;;;21.90;70.80;;;;;;4988182;28;20345;-71
2023/05/28 12:00:37;;;;;;;;;;;22.00;70.30;;;;;;4988219;28;19914;-72
2023/05/28 12:03:03;;;;;;;;;;;22.10;69.40;;;;;;4986623;28;19953;-72
2023/05/28 12:05:35;;;;;;;;;;;22.30;69.50;;;;;;4988198;28;19914;-72
2023/05/28 12:08:01;;;;;;;;;;;22.30;69.30;;;;;;4987964;28;20012;-72
2023/05/28 12:10:26;;;;;;;;;;;22.40;69.70;;;;;;4988136;28;19988;-71
2023/05/28 12:12:55;;;;;;;;;;;22.40;70.40;;;;;;4987966;28;19914;-72
2023/05/28 12:15:24;;;;;;;;;;;22.40;69.40;;;;;;4988005;28;20353;-72
2023/05/28 12:17:56;;;;;;;;;;;22.40;69.00;;;;;;4987850;28;19942;-72
2023/05/28 12:20:22;;;;;;;;;;;22.40;69.30;;;;;;4988137;28;19920;-71
2023/05/28 12:22:58;;;;;;;;;;;22.40;67.80;;;;;;5043225;28;19924;-71
2023/05/28 12:25:24;;;;;;;;;;;22.50;68.60;;;;;;5009893;28;20375;-72
2023/05/28 12:27:49;;;;;;;;;;;22.60;68.00;;;;;;5010584;28;19929;-72
2023/05/28 12:30:15;;;;;;;;;;;22.60;68.20;;;;;;4981477;28;19937;-72
2023/05/28 12:32:41;;;;;;;;;;;22.70;68.30;;;;;;5087911;28;19915;-72
2023/05/28 12:35:07;;;;;;;;;;;22.70;69.40;;;;;;5090116;28;19908;-72
2023/05/28 12:37:32;;;;;;;;;;;22.80;69.30;;;;;;5047333;28;19910;-72
2023/05/28 12:39:58;;;;;;;;;;;22.90;68.80;;;;;;4969999;28;19918;-72
2023/05/28 12:42:23;;;;;;;;;;;22.90;68.20;;;;;;4975703;28;19925;-73
2023/05/28 12:44:49;;;;;;;;;;;23.00;68.00;;;;;;4986337;28;19914;-71
2023/05/28 12:47:14;;;;;;;;;;;23.00;67.30;;;;;;4985039;28;19917;-71
2023/05/28 12:49:40;;;;;;;;;;;23.10;66.40;;;;;;5039215;28;19916;-70
2023/05/28 12:52:05;;;;;;;;;;;23.20;66.70;;;;;;4995455;28;20386;-71
2023/05/28 12:54:32;;;;;;;;;;;23.20;65.40;;;;;;4989745;28;19945;-71
2023/05/28 12:56:58;;;;;;;;;;;23.20;65.50;;;;;;4986061;28;20308;-71
2023/05/28 12:59:24;;;;;;;;;;;23.40;66.40;;;;;;4972545;28;20067;-70
2023/05/28 13:01:50;;;;;;;;;;;23.40;66.80;;;;;;4981817;28;19986;-70
2023/05/28 13:04:16;;;;;;;;;;;23.50;65.30;;;;;;4984962;28;19914;-71
2023/05/28 13:06:42;;;;;;;;;;;23.60;65.40;;;;;;4986034;28;19914;-70
2023/05/28 13:09:09;;;;;;;;;;;23.70;65.60;;;;;;4984890;28;19925;-71
2023/05/28 13:11:35;;;;;;;;;;;23.70;65.60;;;;;;4986266;28;20001;-70
2023/05/28 13:14:01;;;;;;;;;;;23.70;66.60;;;;;;4984776;28;20070;-71
2023/05/28 13:16:26;;;;;;;;;;;23.80;66.70;;;;;;4984782;28;20438;-70
2023/05/28 13:18:52;;;;;;;;;;;23.90;66.80;;;;;;4986335;28;19920;-71
2023/05/28 13:21:17;;;;;;;;;;;23.90;66.40;;;;;;4984617;28;19993;-71
2023/05/28 13:23:43;;;;;;;;;;;23.90;66.30;;;;;;4985806;28;19926;-71
2023/05/28 13:26:08;;;;;;;;;;;23.90;66.40;;;;;;4985257;28;19924;-69
2023/05/28 13:28:35;;;;;;;;;;;24.00;67.10;;;;;;4999415;28;21470;-75
2023/05/28 13:31:01;;;;;;;;;;;24.00;66.80;;;;;;4986968;28;20002;-72
2023/05/28 13:33:26;;;;;;;;;;;24.10;66.70;;;;;;4986313;28;20004;-73
2023/05/28 13:35:52;;;;;;;;;;;24.10;67.50;;;;;;4986592;28;19966;-74
2023/05/28 13:38:19;;;;;;;;;;;24.20;66.10;;;;;;4987239;28;19913;-71
2023/05/28 13:40:44;;;;;;;;;;;24.30;65.00;;;;;;5090007;28;19912;-71
2023/05/28 13:43:11;;;;;;;;;;;24.50;64.30;;;;;;5089279;28;19920;-71
2023/05/28 13:45:36;;;;;;;;;;;24.50;63.30;;;;;;5089025;28;19912;-71
2023/05/28 13:48:02;;;;;;;;;;;24.60;64.20;;;;;;5004396;28;19971;-76
2023/05/28 13:50:28;;;;;;;;;;;24.70;64.30;;;;;;4991183;28;19910;-75
2023/05/28 13:52:53;;;;;;;;;;;24.70;62.90;;;;;;5006118;28;20000;-75
2023/05/28 13:55:19;;;;;;;;;;;24.70;63.70;;;;;;5005067;28;19920;-75
2023/05/28 13:57:44;;;;;;;;;;;24.80;64.30;;;;;;5006156;28;20013;-76
2023/05/28 14:00:10;;;;;;;;;;;24.80;64.20;;;;;;4987410;28;19914;-74
2023/05/28 14:02:36;;;;;;;;;;;24.80;63.50;;;;;;4985045;28;19980;-73
2023/05/28 14:05:01;;;;;;;;;;;24.80;64.00;;;;;;4978897;28;19925;-72
2023/05/28 14:07:27;;;;;;;;;;;24.80;64.90;;;;;;4978357;28;20371;-71
2023/05/28 14:09:52;;;;;;;;;;;24.80;65.10;;;;;;4980174;28;19949;-72